Terminal Aerodrome Forecast
Issued by NWS Brownsville, TX

Home | Current Version | Previous Version | Text Only | Print | Product List | Glossary On
Versions: 1 2 3 4 5 6 7 8 9 10 11 12 13 14 15 16 17
000
FTUS44 KBRO 291729
TAFBRO
TAF
KBRO 291729Z 2918/3018 16023G30KT P6SM FEW030
     FM300000 15018G24KT P6SM SKC
     FM300200 15011KT P6SM SCT030
     FM301600 16018G22KT P6SM FEW040=

USA.gov is the U.S. government's official web portal to all federal, state and local government web resources and services.